Zhanyi, China
Current Conditions -  °F | °C
As of 9:00 PM on Wednesday 22 Oct 2014 (Local Time) from ZPPP Reporting Station
Few Clouds Few Clouds  
Wind Chill: 61°   Ceiling: Unl
Heat Index: 61°   Visibility: 6mi
Dew Point: 50°   Wind: 11mph
Humidity: 68%   Direction: 180°S
Pressure: 30.3"   Gusts: NA
Location:  25.58°N, 103.83°E
Report Text: ZPPP 221300Z 18005MPS 9999 FEW046 16/10 Q1026 NOSIG
Loading
Personal Weather Stations






























Interactive Weather Map
Tropical Storm Tracking
New forecast layout! Learn more

10-Day Weather Forecast

Advertisements
Track Severe Weather on mobile